sensor_id;sensor_type;location;lat;lon;timestamp;pressure;altitude;pressure_sealevel;temperature;humidity
35045;BME280;21231;48.394;34.964;2023-04-10T00:00:18;100592.09;;;7.91;100.00
35045;BME280;21231;48.394;34.964;2023-04-10T00:02:49;100590.94;;;7.88;100.00
35045;BME280;21231;48.394;34.964;2023-04-10T00:05:18;100591.63;;;7.85;100.00
35045;BME280;21231;48.394;34.964;2023-04-10T00:07:47;100591.63;;;7.85;100.00
35045;BME280;21231;48.394;34.964;2023-04-10T00:10:16;100595.50;;;7.80;100.00
35045;BME280;21231;48.394;34.964;2023-04-10T00:12:44;100601.28;;;7.77;100.00
35045;BME280;21231;48.394;34.964;2023-04-10T00:15:14;100596.72;;;7.73;100.00
35045;BME280;21231;48.394;34.964;2023-04-10T00:17:44;100593.91;;;7.70;100.00
35045;BME280;21231;48.394;34.964;2023-04-10T00:20:13;100599.72;;;7.68;100.00
35045;BME280;21231;48.394;34.964;2023-04-10T00:22:42;100593.47;;;7.64;100.00
35045;BME280;21231;48.394;34.964;2023-04-10T00:25:10;100594.94;;;7.60;100.00
35045;BME280;21231;48.394;34.964;2023-04-10T00:27:39;100593.53;;;7.53;100.00
35045;BME280;21231;48.394;34.964;2023-04-10T00:30:08;100591.56;;;7.49;100.00
35045;BME280;21231;48.394;34.964;2023-04-10T00:32:37;100593.22;;;7.49;100.00
35045;BME280;21231;48.394;34.964;2023-04-10T00:35:07;100583.25;;;7.42;100.00
35045;BME280;21231;48.394;34.964;2023-04-10T00:37:36;100590.63;;;7.37;100.00
35045;BME280;21231;48.394;34.964;2023-04-10T00:40:05;100591.84;;;7.30;100.00
35045;BME280;21231;48.394;34.964;2023-04-10T00:42:34;100597.72;;;7.29;100.00
35045;BME280;21231;48.394;34.964;2023-04-10T00:45:03;100595.03;;;7.27;100.00
35045;BME280;21231;48.394;34.964;2023-04-10T00:47:33;100596.72;;;7.27;100.00
35045;BME280;21231;48.394;34.964;2023-04-10T00:50:04;100593.91;;;7.24;100.00
35045;BME280;21231;48.394;34.964;2023-04-10T00:52:34;100597.16;;;7.21;100.00
35045;BME280;21231;48.394;34.964;2023-04-10T00:55:03;100594.59;;;7.21;100.00
35045;BME280;21231;48.394;34.964;2023-04-10T00:57:36;100603.72;;;7.18;100.00
35045;BME280;21231;48.394;34.964;2023-04-10T01:00:06;100602.16;;;7.20;100.00
35045;BME280;21231;48.394;34.964;2023-04-10T01:02:36;100594.47;;;7.20;100.00
35045;BME280;21231;48.394;34.964;2023-04-10T01:05:05;100598.94;;;7.22;100.00
35045;BME280;21231;48.394;34.964;2023-04-10T01:13:19;100592.38;;;7.26;100.00
35045;BME280;21231;48.394;34.964;2023-04-10T01:16:00;100589.91;;;7.27;100.00
35045;BME280;21231;48.394;34.964;2023-04-10T01:19:04;100598.50;;;7.28;100.00
35045;BME280;21231;48.394;34.964;2023-04-10T01:21:37;100593.50;;;7.30;100.00
35045;BME280;21231;48.394;34.964;2023-04-10T01:24:28;100593.38;;;7.28;100.00
35045;BME280;21231;48.394;34.964;2023-04-10T01:29:51;100585.63;;;7.38;100.00
35045;BME280;21231;48.394;34.964;2023-04-10T01:32:29;100577.25;;;7.41;100.00
35045;BME280;21231;48.394;34.964;2023-04-10T01:35:05;100588.41;;;7.42;100.00
35045;BME280;21231;48.394;34.964;2023-04-10T01:37:39;100585.72;;;7.40;100.00
35045;BME280;21231;48.394;34.964;2023-04-10T01:40:14;100581.38;;;7.39;100.00
35045;BME280;21231;48.394;34.964;2023-04-10T01:42:52;100584.16;;;7.30;100.00
35045;BME280;21231;48.394;34.964;2023-04-10T01:45:29;100579.44;;;7.24;100.00
35045;BME280;21231;48.394;34.964;2023-04-10T01:48:02;100574.97;;;7.22;100.00
35045;BME280;21231;48.394;34.964;2023-04-10T01:50:34;100583.13;;;7.28;100.00
35045;BME280;21231;48.394;34.964;2023-04-10T01:53:05;100577.22;;;7.29;100.00
35045;BME280;21231;48.394;34.964;2023-04-10T01:55:36;100579.66;;;7.27;100.00
35045;BME280;21231;48.394;34.964;2023-04-10T01:58:07;100580.56;;;7.28;100.00
35045;BME280;21231;48.394;34.964;2023-04-10T02:00:38;100574.44;;;7.26;100.00
35045;BME280;21231;48.394;34.964;2023-04-10T02:03:11;100574.75;;;7.19;100.00
35045;BME280;21231;48.394;34.964;2023-04-10T02:11:48;100570.69;;;7.10;100.00
35045;BME280;21231;48.394;34.964;2023-04-10T02:14:19;100562.06;;;6.98;100.00
35045;BME280;21231;48.394;34.964;2023-04-10T02:16:52;100571.00;;;7.03;100.00
35045;BME280;21231;48.394;34.964;2023-04-10T02:19:24;100578.81;;;7.05;100.00
35045;BME280;21231;48.394;34.964;2023-04-10T02:21:54;100577.94;;;7.04;100.00
35045;BME280;21231;48.394;34.964;2023-04-10T02:24:25;100572.81;;;7.04;100.00
35045;BME280;21231;48.394;34.964;2023-04-10T02:26:55;100569.34;;;7.04;100.00
35045;BME280;21231;48.394;34.964;2023-04-10T02:29:23;100572.25;;;7.08;100.00
35045;BME280;21231;48.394;34.964;2023-04-10T02:31:55;100575.56;;;7.07;100.00
35045;BME280;21231;48.394;34.964;2023-04-10T02:34:26;100570.25;;;7.04;100.00
35045;BME280;21231;48.394;34.964;2023-04-10T02:36:54;100571.13;;;7.05;100.00
35045;BME280;21231;48.394;34.964;2023-04-10T02:39:24;100571.91;;;7.04;100.00
35045;BME280;21231;48.394;34.964;2023-04-10T02:41:53;100573.56;;;7.03;100.00
35045;BME280;21231;48.394;34.964;2023-04-10T02:44:23;100568.97;;;6.99;100.00
35045;BME280;21231;48.394;34.964;2023-04-10T02:46:52;100570.66;;;6.98;100.00
35045;BME280;21231;48.394;34.964;2023-04-10T02:49:21;100574.09;;;6.99;100.00
35045;BME280;21231;48.394;34.964;2023-04-10T02:51:49;100565.94;;;6.93;100.00
35045;BME280;21231;48.394;34.964;2023-04-10T02:54:18;100564.59;;;6.86;100.00
35045;BME280;21231;48.394;34.964;2023-04-10T02:56:47;100558.97;;;6.80;100.00
35045;BME280;21231;48.394;34.964;2023-04-10T02:59:15;100565.00;;;6.80;100.00
35045;BME280;21231;48.394;34.964;2023-04-10T03:01:45;100573.34;;;6.78;100.00
35045;BME280;21231;48.394;34.964;2023-04-10T03:04:14;100571.44;;;6.75;100.00
35045;BME280;21231;48.394;34.964;2023-04-10T03:06:43;100564.81;;;6.67;100.00
35045;BME280;21231;48.394;34.964;2023-04-10T03:09:13;100572.25;;;6.64;100.00
35045;BME280;21231;48.394;34.964;2023-04-10T03:11:45;100572.13;;;6.62;100.00
35045;BME280;21231;48.394;34.964;2023-04-10T03:14:14;100574.28;;;6.68;100.00
35045;BME280;21231;48.394;34.964;2023-04-10T03:16:46;100573.63;;;6.70;100.00
35045;BME280;21231;48.394;34.964;2023-04-10T03:19:15;100582.69;;;6.77;100.00
35045;BME280;21231;48.394;34.964;2023-04-10T03:21:44;100577.03;;;6.81;100.00
35045;BME280;21231;48.394;34.964;2023-04-10T03:24:14;100583.09;;;6.94;100.00
35045;BME280;21231;48.394;34.964;2023-04-10T03:26:43;100586.25;;;7.01;100.00
35045;BME280;21231;48.394;34.964;2023-04-10T03:29:11;100588.88;;;7.13;100.00
35045;BME280;21231;48.394;34.964;2023-04-10T03:31:45;100583.34;;;7.19;100.00
35045;BME280;21231;48.394;34.964;2023-04-10T03:34:14;100587.00;;;7.23;100.00
35045;BME280;21231;48.394;34.964;2023-04-10T03:36:42;100585.03;;;7.31;100.00
35045;BME280;21231;48.394;34.964;2023-04-10T03:39:11;100587.16;;;7.36;100.00
35045;BME280;21231;48.394;34.964;2023-04-10T03:41:40;100578.25;;;7.43;100.00
35045;BME280;21231;48.394;34.964;2023-04-10T03:44:08;100581.19;;;7.48;100.00
35045;BME280;21231;48.394;34.964;2023-04-10T03:46:40;100578.38;;;7.45;100.00
35045;BME280;21231;48.394;34.964;2023-04-10T03:49:08;100586.63;;;7.40;100.00
35045;BME280;21231;48.394;34.964;2023-04-10T03:51:38;100592.41;;;7.38;100.00
35045;BME280;21231;48.394;34.964;2023-04-10T03:54:07;100596.44;;;7.34;100.00
35045;BME280;21231;48.394;34.964;2023-04-10T03:56:35;100592.84;;;7.32;100.00
35045;BME280;21231;48.394;34.964;2023-04-10T03:59:04;100582.13;;;7.26;100.00
35045;BME280;21231;48.394;34.964;2023-04-10T04:01:38;100600.78;;;7.35;100.00
35045;BME280;21231;48.394;34.964;2023-04-10T04:04:10;100602.31;;;7.33;100.00
35045;BME280;21231;48.394;34.964;2023-04-10T04:07:17;100607.69;;;7.36;100.00
35045;BME280;21231;48.394;34.964;2023-04-10T04:09:55;100595.41;;;7.44;100.00
35045;BME280;21231;48.394;34.964;2023-04-10T04:12:36;100595.34;;;7.55;100.00
35045;BME280;21231;48.394;34.964;2023-04-10T04:15:19;100596.16;;;7.65;100.00
35045;BME280;21231;48.394;34.964;2023-04-10T04:17:54;100604.09;;;7.81;100.00
35045;BME280;21231;48.394;34.964;2023-04-10T04:20:48;100598.59;;;7.76;100.00
35045;BME280;21231;48.394;34.964;2023-04-10T04:23:31;100603.69;;;7.86;100.00
35045;BME280;21231;48.394;34.964;2023-04-10T04:26:07;100599.78;;;8.15;100.00
35045;BME280;21231;48.394;34.964;2023-04-10T04:29:02;100605.69;;;8.50;100.00
35045;BME280;21231;48.394;34.964;2023-04-10T04:31:50;100607.41;;;8.75;100.00
35045;BME280;21231;48.394;34.964;2023-04-10T04:34:50;100608.81;;;8.95;100.00
35045;BME280;21231;48.394;34.964;2023-04-10T04:37:50;100605.72;;;9.13;100.00
35045;BME280;21231;48.394;34.964;2023-04-10T04:40:40;100619.81;;;9.32;100.00
35045;BME280;21231;48.394;34.964;2023-04-10T04:43:21;100611.16;;;9.43;100.00
35045;BME280;21231;48.394;34.964;2023-04-10T04:45:58;100613.38;;;9.51;100.00
35045;BME280;21231;48.394;34.964;2023-04-10T04:48:47;100608.16;;;9.63;100.00
35045;BME280;21231;48.394;34.964;2023-04-10T04:51:32;100602.56;;;9.95;100.00
35045;BME280;21231;48.394;34.964;2023-04-10T04:54:18;100603.47;;;10.50;100.00
35045;BME280;21231;48.394;34.964;2023-04-10T04:56:57;100604.34;;;10.93;100.00
35045;BME280;21231;48.394;34.964;2023-04-10T04:59:46;100608.59;;;10.92;100.00
35045;BME280;21231;48.394;34.964;2023-04-10T05:02:35;100596.84;;;11.11;100.00
35045;BME280;21231;48.394;34.964;2023-04-10T05:05:28;100613.84;;;11.22;100.00
35045;BME280;21231;48.394;34.964;2023-04-10T05:08:17;100612.94;;;11.50;100.00
35045;BME280;21231;48.394;34.964;2023-04-10T05:11:05;100625.66;;;11.47;100.00
35045;BME280;21231;48.394;34.964;2023-04-10T05:13:59;100650.13;;;11.54;100.00
35045;BME280;21231;48.394;34.964;2023-04-10T05:16:42;100662.25;;;11.55;100.00
35045;BME280;21231;48.394;34.964;2023-04-10T05:19:22;100663.78;;;11.81;100.00
35045;BME280;21231;48.394;34.964;2023-04-10T05:21:56;100687.28;;;12.61;100.00
35045;BME280;21231;48.394;34.964;2023-04-10T05:24:44;100710.50;;;13.08;100.00
35045;BME280;21231;48.394;34.964;2023-04-10T05:27:36;100708.34;;;13.99;100.00
35045;BME280;21231;48.394;34.964;2023-04-10T05:30:24;100693.22;;;13.90;100.00
35045;BME280;21231;48.394;34.964;2023-04-10T05:33:25;100687.44;;;14.49;100.00
35045;BME280;21231;48.394;34.964;2023-04-10T05:36:12;100678.59;;;14.82;100.00
35045;BME280;21231;48.394;34.964;2023-04-10T05:39:15;100671.97;;;15.27;100.00
35045;BME280;21231;48.394;34.964;2023-04-10T05:42:03;100670.53;;;15.94;100.00
35045;BME280;21231;48.394;34.964;2023-04-10T05:44:44;100667.63;;;16.08;100.00
35045;BME280;21231;48.394;34.964;2023-04-10T05:47:44;100664.97;;;15.85;100.00
35045;BME280;21231;48.394;34.964;2023-04-10T05:50:37;100675.03;;;16.62;100.00
35045;BME280;21231;48.394;34.964;2023-04-10T05:53:30;100673.25;;;16.84;100.00
35045;BME280;21231;48.394;34.964;2023-04-10T05:56:22;100681.72;;;17.01;100.00
35045;BME280;21231;48.394;34.964;2023-04-10T05:59:27;100682.59;;;16.79;100.00
35045;BME280;21231;48.394;34.964;2023-04-10T06:02:17;100685.41;;;16.84;100.00
35045;BME280;21231;48.394;34.964;2023-04-10T06:04:46;100683.53;;;16.37;100.00
35045;BME280;21231;48.394;34.964;2023-04-10T06:07:16;100690.31;;;16.55;100.00
35045;BME280;21231;48.394;34.964;2023-04-10T06:09:45;100688.41;;;16.50;100.00
35045;BME280;21231;48.394;34.964;2023-04-10T06:12:14;100691.31;;;16.57;100.00
35045;BME280;21231;48.394;34.964;2023-04-10T06:14:43;100684.53;;;17.08;100.00
35045;BME280;21231;48.394;34.964;2023-04-10T06:17:11;100691.19;;;17.22;100.00
35045;BME280;21231;48.394;34.964;2023-04-10T06:19:40;100704.66;;;17.35;100.00
35045;BME280;21231;48.394;34.964;2023-04-10T06:22:09;100693.84;;;17.24;100.00
35045;BME280;21231;48.394;34.964;2023-04-10T06:24:38;100696.50;;;17.02;100.00
35045;BME280;21231;48.394;34.964;2023-04-10T06:27:06;100697.81;;;16.47;100.00
35045;BME280;21231;48.394;34.964;2023-04-10T06:29:38;100697.63;;;16.63;100.00
35045;BME280;21231;48.394;34.964;2023-04-10T06:32:07;100701.34;;;16.49;100.00
35045;BME280;21231;48.394;34.964;2023-04-10T06:34:37;100709.44;;;16.12;100.00
35045;BME280;21231;48.394;34.964;2023-04-10T06:37:08;100697.59;;;15.78;100.00
35045;BME280;21231;48.394;34.964;2023-04-10T06:39:37;100702.25;;;16.49;100.00
35045;BME280;21231;48.394;34.964;2023-04-10T06:42:06;100691.59;;;16.87;100.00
35045;BME280;21231;48.394;34.964;2023-04-10T06:44:55;100698.50;;;16.64;100.00
35045;BME280;21231;48.394;34.964;2023-04-10T06:47:26;100711.94;;;16.32;100.00
35045;BME280;21231;48.394;34.964;2023-04-10T06:49:54;100702.84;;;16.86;100.00
35045;BME280;21231;48.394;34.964;2023-04-10T06:52:25;100705.31;;;16.60;100.00
35045;BME280;21231;48.394;34.964;2023-04-10T06:54:54;100702.13;;;16.68;100.00
35045;BME280;21231;48.394;34.964;2023-04-10T06:57:22;100701.69;;;17.25;100.00
35045;BME280;21231;48.394;34.964;2023-04-10T06:59:51;100699.22;;;17.28;100.00
35045;BME280;21231;48.394;34.964;2023-04-10T07:02:19;100694.41;;;16.69;100.00
35045;BME280;21231;48.394;34.964;2023-04-10T07:04:48;100697.00;;;16.69;100.00
35045;BME280;21231;48.394;34.964;2023-04-10T07:07:17;100702.09;;;16.89;100.00
35045;BME280;21231;48.394;34.964;2023-04-10T07:09:46;100710.81;;;16.68;100.00
35045;BME280;21231;48.394;34.964;2023-04-10T07:12:15;100700.06;;;16.37;100.00
35045;BME280;21231;48.394;34.964;2023-04-10T07:14:43;100697.94;;;16.50;100.00
35045;BME280;21231;48.394;34.964;2023-04-10T07:17:12;100697.59;;;16.85;100.00
35045;BME280;21231;48.394;34.964;2023-04-10T07:19:44;100699.75;;;16.97;100.00
35045;BME280;21231;48.394;34.964;2023-04-10T07:22:12;100693.09;;;16.81;100.00
35045;BME280;21231;48.394;34.964;2023-04-10T07:24:44;100700.47;;;16.48;100.00
35045;BME280;21231;48.394;34.964;2023-04-10T07:27:13;100690.69;;;16.64;100.00
35045;BME280;21231;48.394;34.964;2023-04-10T07:29:41;100688.00;;;16.61;100.00
35045;BME280;21231;48.394;34.964;2023-04-10T07:32:09;100681.06;;;16.61;100.00
35045;BME280;21231;48.394;34.964;2023-04-10T07:34:38;100681.47;;;17.18;100.00
35045;BME280;21231;48.394;34.964;2023-04-10T07:37:06;100677.50;;;18.03;100.00
35045;BME280;21231;48.394;34.964;2023-04-10T07:39:38;100666.25;;;18.59;100.00
35045;BME280;21231;48.394;34.964;2023-04-10T07:42:06;100672.50;;;18.37;100.00
35045;BME280;21231;48.394;34.964;2023-04-10T07:44:34;100674.50;;;18.18;100.00
35045;BME280;21231;48.394;34.964;2023-04-10T07:47:06;100681.88;;;17.78;100.00
35045;BME280;21231;48.394;34.964;2023-04-10T07:49:34;100688.19;;;17.36;100.00
35045;BME280;21231;48.394;34.964;2023-04-10T07:52:03;100673.78;;;16.98;100.00
35045;BME280;21231;48.394;34.964;2023-04-10T07:54:33;100678.84;;;16.94;100.00
35045;BME280;21231;48.394;34.964;2023-04-10T07:57:03;100671.03;;;16.94;100.00
35045;BME280;21231;48.394;34.964;2023-04-10T07:59:32;100670.22;;;17.19;100.00
35045;BME280;21231;48.394;34.964;2023-04-10T08:02:00;100668.81;;;16.82;100.00
35045;BME280;21231;48.394;34.964;2023-04-10T08:04:31;100662.91;;;16.63;100.00
35045;BME280;21231;48.394;34.964;2023-04-10T08:07:03;100663.88;;;16.44;100.00
35045;BME280;21231;48.394;34.964;2023-04-10T08:09:31;100654.88;;;15.93;100.00
35045;BME280;21231;48.394;34.964;2023-04-10T08:11:59;100653.91;;;15.69;100.00
35045;BME280;21231;48.394;34.964;2023-04-10T08:14:28;100648.72;;;15.69;100.00
35045;BME280;21231;48.394;34.964;2023-04-10T08:16:56;100637.41;;;16.10;100.00
35045;BME280;21231;48.394;34.964;2023-04-10T08:19:25;100649.81;;;16.38;100.00
35045;BME280;21231;48.394;34.964;2023-04-10T08:21:54;100656.72;;;16.59;100.00
35045;BME280;21231;48.394;34.964;2023-04-10T08:24:22;100641.53;;;16.70;100.00
35045;BME280;21231;48.394;34.964;2023-04-10T08:26:50;100647.66;;;16.72;100.00
35045;BME280;21231;48.394;34.964;2023-04-10T08:29:20;100645.66;;;17.37;100.00
35045;BME280;21231;48.394;34.964;2023-04-10T08:31:50;100633.97;;;16.55;100.00
35045;BME280;21231;48.394;34.964;2023-04-10T08:34:20;100642.44;;;16.72;100.00
35045;BME280;21231;48.394;34.964;2023-04-10T08:36:50;100634.59;;;16.94;100.00
35045;BME280;21231;48.394;34.964;2023-04-10T08:39:22;100629.47;;;16.97;100.00
35045;BME280;21231;48.394;34.964;2023-04-10T08:41:50;100619.38;;;16.59;100.00
35045;BME280;21231;48.394;34.964;2023-04-10T08:44:18;100616.75;;;16.15;100.00
35045;BME280;21231;48.394;34.964;2023-04-10T08:46:48;100616.66;;;15.90;100.00
35045;BME280;21231;48.394;34.964;2023-04-10T08:49:46;100617.97;;;16.23;100.00
35045;BME280;21231;48.394;34.964;2023-04-10T08:52:20;100623.13;;;15.79;100.00
35045;BME280;21231;48.394;34.964;2023-04-10T08:54:53;100616.34;;;16.48;100.00
35045;BME280;21231;48.394;34.964;2023-04-10T08:57:23;100612.28;;;17.00;100.00
35045;BME280;21231;48.394;34.964;2023-04-10T08:59:54;100599.06;;;16.96;100.00
35045;BME280;21231;48.394;34.964;2023-04-10T09:02:23;100597.69;;;17.56;100.00
35045;BME280;21231;48.394;34.964;2023-04-10T09:04:53;100613.44;;;16.86;100.00
35045;BME280;21231;48.394;34.964;2023-04-10T09:07:27;100600.78;;;16.27;100.00
35045;BME280;21231;48.394;34.964;2023-04-10T09:09:55;100589.03;;;15.92;100.00
35045;BME280;21231;48.394;34.964;2023-04-10T09:12:24;100596.38;;;16.24;100.00
35045;BME280;21231;48.394;34.964;2023-04-10T09:14:55;100597.19;;;16.02;100.00
35045;BME280;21231;48.394;34.964;2023-04-10T09:17:23;100597.22;;;16.47;100.00
35045;BME280;21231;48.394;34.964;2023-04-10T09:19:54;100584.97;;;16.66;100.00
35045;BME280;21231;48.394;34.964;2023-04-10T09:22:34;100584.44;;;16.75;100.00
35045;BME280;21231;48.394;34.964;2023-04-10T09:25:03;100577.81;;;16.37;100.00
35045;BME280;21231;48.394;34.964;2023-04-10T09:27:34;100579.09;;;16.26;100.00
35045;BME280;21231;48.394;34.964;2023-04-10T09:30:05;100577.19;;;16.22;100.00
35045;BME280;21231;48.394;34.964;2023-04-10T09:32:44;100573.25;;;16.09;100.00
35045;BME280;21231;48.394;34.964;2023-04-10T09:35:14;100577.50;;;15.85;100.00
35045;BME280;21231;48.394;34.964;2023-04-10T09:37:44;100579.72;;;15.76;100.00
35045;BME280;21231;48.394;34.964;2023-04-10T09:40:20;100573.72;;;15.36;100.00
35045;BME280;21231;48.394;34.964;2023-04-10T09:42:50;100581.91;;;15.26;100.00
35045;BME280;21231;48.394;34.964;2023-04-10T09:45:21;100574.31;;;15.11;100.00
35045;BME280;21231;48.394;34.964;2023-04-10T09:48:05;100571.69;;;15.29;100.00
35045;BME280;21231;48.394;34.964;2023-04-10T09:50:38;100565.06;;;15.78;100.00
35045;BME280;21231;48.394;34.964;2023-04-10T09:53:09;100550.44;;;15.59;100.00
35045;BME280;21231;48.394;34.964;2023-04-10T09:55:40;100554.25;;;15.46;100.00
35045;BME280;21231;48.394;34.964;2023-04-10T09:58:09;100549.22;;;15.51;100.00
35045;BME280;21231;48.394;34.964;2023-04-10T10:00:43;100558.78;;;15.52;100.00
35045;BME280;21231;48.394;34.964;2023-04-10T10:03:17;100554.88;;;15.40;100.00
35045;BME280;21231;48.394;34.964;2023-04-10T10:05:50;100546.22;;;15.61;100.00
35045;BME280;21231;48.394;34.964;2023-04-10T10:08:20;100542.00;;;15.86;100.00
35045;BME280;21231;48.394;34.964;2023-04-10T10:10:57;100543.88;;;15.90;100.00
35045;BME280;21231;48.394;34.964;2023-04-10T10:16:08;100543.28;;;15.75;100.00
35045;BME280;21231;48.394;34.964;2023-04-10T10:18:50;100530.34;;;15.55;100.00
35045;BME280;21231;48.394;34.964;2023-04-10T10:21:22;100542.06;;;15.88;100.00
35045;BME280;21231;48.394;34.964;2023-04-10T10:23:58;100552.34;;;15.63;100.00
35045;BME280;21231;48.394;34.964;2023-04-10T10:26:29;100537.31;;;15.56;100.00
35045;BME280;21231;48.394;34.964;2023-04-10T10:29:03;100539.66;;;15.50;100.00
35045;BME280;21231;48.394;34.964;2023-04-10T10:31:32;100528.03;;;15.61;100.00
35045;BME280;21231;48.394;34.964;2023-04-10T10:34:03;100533.53;;;15.69;100.00
35045;BME280;21231;48.394;34.964;2023-04-10T10:36:36;100534.28;;;15.25;100.00
35045;BME280;21231;48.394;34.964;2023-04-10T10:39:31;100526.13;;;15.57;100.00
35045;BME280;21231;48.394;34.964;2023-04-10T10:42:17;100524.97;;;15.50;100.00
35045;BME280;21231;48.394;34.964;2023-04-10T10:45:17;100512.19;;;15.78;100.00
35045;BME280;21231;48.394;34.964;2023-04-10T10:47:50;100521.19;;;15.42;100.00
35045;BME280;21231;48.394;34.964;2023-04-10T10:50:19;100514.38;;;15.45;100.00
35045;BME280;21231;48.394;34.964;2023-04-10T10:52:52;100515.63;;;15.34;100.00
35045;BME280;21231;48.394;34.964;2023-04-10T10:58:08;100505.19;;;15.54;100.00
35045;BME280;21231;48.394;34.964;2023-04-10T11:06:01;100503.00;;;15.86;100.00
35045;BME280;21231;48.394;34.964;2023-04-10T11:08:50;100502.50;;;15.73;100.00
35045;BME280;21231;48.394;34.964;2023-04-10T11:11:24;100512.03;;;15.73;100.00
35045;BME280;21231;48.394;34.964;2023-04-10T11:21:59;100500.13;;;16.01;100.00
35045;BME280;21231;48.394;34.964;2023-04-10T11:24:29;100489.59;;;15.75;100.00
35045;BME280;21231;48.394;34.964;2023-04-10T11:27:37;100496.00;;;15.62;100.00
35045;BME280;21231;48.394;34.964;2023-04-10T11:30:29;100477.13;;;15.66;100.00
35045;BME280;21231;48.394;34.964;2023-04-10T11:32:59;100472.69;;;15.64;100.00
35045;BME280;21231;48.394;34.964;2023-04-10T11:35:29;100470.59;;;15.76;100.00
35045;BME280;21231;48.394;34.964;2023-04-10T11:38:12;100481.03;;;15.78;100.00
35045;BME280;21231;48.394;34.964;2023-04-10T11:40:59;100470.94;;;16.31;100.00
35045;BME280;21231;48.394;34.964;2023-04-10T11:43:30;100459.97;;;16.63;100.00
35045;BME280;21231;48.394;34.964;2023-04-10T11:46:04;100465.41;;;16.69;100.00
35045;BME280;21231;48.394;34.964;2023-04-10T11:48:33;100461.25;;;16.74;100.00
35045;BME280;21231;48.394;34.964;2023-04-10T11:51:12;100447.44;;;16.77;100.00
35045;BME280;21231;48.394;34.964;2023-04-10T11:53:41;100453.44;;;17.26;100.00
35045;BME280;21231;48.394;34.964;2023-04-10T11:56:17;100453.91;;;16.64;100.00
35045;BME280;21231;48.394;34.964;2023-04-10T11:58:49;100452.47;;;16.01;100.00
35045;BME280;21231;48.394;34.964;2023-04-10T12:01:22;100451.38;;;15.95;100.00
35045;BME280;21231;48.394;34.964;2023-04-10T12:03:56;100451.75;;;15.82;100.00
35045;BME280;21231;48.394;34.964;2023-04-10T12:06:27;100442.88;;;15.99;100.00
35045;BME280;21231;48.394;34.964;2023-04-10T12:08:56;100439.53;;;16.02;100.00
35045;BME280;21231;48.394;34.964;2023-04-10T12:11:25;100433.25;;;16.20;100.00
35045;BME280;21231;48.394;34.964;2023-04-10T12:13:56;100429.16;;;16.27;100.00
35045;BME280;21231;48.394;34.964;2023-04-10T12:16:27;100435.44;;;16.09;100.00
35045;BME280;21231;48.394;34.964;2023-04-10T12:18:55;100425.84;;;16.08;100.00
35045;BME280;21231;48.394;34.964;2023-04-10T12:21:24;100426.81;;;16.10;100.00
35045;BME280;21231;48.394;34.964;2023-04-10T12:23:54;100418.75;;;16.27;100.00
35045;BME280;21231;48.394;34.964;2023-04-10T12:26:26;100409.22;;;16.27;100.00
35045;BME280;21231;48.394;34.964;2023-04-10T12:28:57;100412.28;;;16.64;100.00
35045;BME280;21231;48.394;34.964;2023-04-10T12:31:32;100406.16;;;16.62;100.00
35045;BME280;21231;48.394;34.964;2023-04-10T12:34:02;100405.88;;;16.54;100.00
35045;BME280;21231;48.394;34.964;2023-04-10T12:36:32;100399.28;;;16.64;100.00
35045;BME280;21231;48.394;34.964;2023-04-10T12:39:03;100403.16;;;16.75;100.00
35045;BME280;21231;48.394;34.964;2023-04-10T12:41:34;100400.72;;;16.80;100.00
35045;BME280;21231;48.394;34.964;2023-04-10T12:44:11;100398.31;;;16.60;100.00
35045;BME280;21231;48.394;34.964;2023-04-10T12:46:41;100394.31;;;16.46;100.00
35045;BME280;21231;48.394;34.964;2023-04-10T12:49:15;100389.03;;;16.44;100.00
35045;BME280;21231;48.394;34.964;2023-04-10T12:51:50;100400.72;;;16.31;100.00
35045;BME280;21231;48.394;34.964;2023-04-10T12:54:33;100394.53;;;16.28;100.00
35045;BME280;21231;48.394;34.964;2023-04-10T12:57:02;100382.50;;;16.31;100.00
35045;BME280;21231;48.394;34.964;2023-04-10T12:59:31;100382.13;;;16.20;100.00
35045;BME280;21231;48.394;34.964;2023-04-10T13:02:00;100384.91;;;16.25;100.00
35045;BME280;21231;48.394;34.964;2023-04-10T13:04:30;100385.59;;;16.45;100.00
35045;BME280;21231;48.394;34.964;2023-04-10T13:07:00;100387.00;;;16.35;100.00
35045;BME280;21231;48.394;34.964;2023-04-10T13:09:30;100382.19;;;16.22;100.00
35045;BME280;21231;48.394;34.964;2023-04-10T13:11:58;100379.06;;;16.32;100.00
35045;BME280;21231;48.394;34.964;2023-04-10T13:14:28;100388.25;;;16.47;100.00
35045;BME280;21231;48.394;34.964;2023-04-10T13:16:57;100388.59;;;16.32;100.00
35045;BME280;21231;48.394;34.964;2023-04-10T13:19:26;100369.44;;;16.05;100.00
35045;BME280;21231;48.394;34.964;2023-04-10T13:21:57;100381.56;;;16.05;100.00
35045;BME280;21231;48.394;34.964;2023-04-10T13:24:28;100369.03;;;15.94;100.00
35045;BME280;21231;48.394;34.964;2023-04-10T13:26:56;100368.28;;;15.97;100.00
35045;BME280;21231;48.394;34.964;2023-04-10T13:29:28;100373.66;;;16.02;100.00
35045;BME280;21231;48.394;34.964;2023-04-10T13:31:57;100360.00;;;16.07;100.00
35045;BME280;21231;48.394;34.964;2023-04-10T13:34:28;100363.59;;;16.11;100.00
35045;BME280;21231;48.394;34.964;2023-04-10T13:36:57;100354.94;;;16.12;100.00
35045;BME280;21231;48.394;34.964;2023-04-10T13:39:27;100363.47;;;16.08;100.00